createdAt,value
2018-05-25T00:01:09.780Z,96853.97
2018-05-25T00:04:33.159Z,96852.61
2018-05-25T00:07:56.626Z,96858.68
2018-05-25T00:11:20.042Z,96859.82
2018-05-25T00:14:43.705Z,96859.27
2018-05-25T00:18:07.245Z,96864.25
2018-05-25T00:21:30.635Z,96862.97
2018-05-25T00:24:54.141Z,96866.97
2018-05-25T00:28:17.639Z,96865.41
2018-05-25T00:31:41.027Z,96861.89
2018-05-25T00:35:04.434Z,96867.65
2018-05-25T00:38:27.958Z,96860.41
2018-05-25T00:41:51.355Z,96852.03
2018-05-25T00:45:14.757Z,96853.13
2018-05-25T00:48:38.184Z,96853.94
2018-05-25T00:52:01.585Z,96852.55
2018-05-25T00:55:40.715Z,96860.93
2018-05-25T00:59:05.289Z,96850.58
2018-05-25T01:02:28.685Z,96848.70
2018-05-25T01:05:52.204Z,96847.33
2018-05-25T01:09:15.579Z,96851.37
2018-05-25T01:12:41.243Z,96846.08
2018-05-25T01:16:05.627Z,96848.42
2018-05-25T01:19:30.121Z,96840.57
2018-05-25T01:22:55.663Z,96843.09
2018-05-25T01:26:19.101Z,96842.78
2018-05-25T01:29:42.516Z,96833.63
2018-05-25T01:33:05.921Z,96838.31
2018-05-25T01:36:29.376Z,96837.72
2018-05-25T01:39:52.807Z,96835.63
2018-05-25T01:43:16.195Z,96831.50
2018-05-25T01:46:39.809Z,96830.41
2018-05-25T01:50:03.110Z,96822.30
2018-05-25T01:53:26.738Z,96828.00
2018-05-25T01:56:50.029Z,96830.09
2018-05-25T02:00:13.425Z,96824.20
2018-05-25T02:03:36.905Z,96827.94
2018-05-25T02:07:00.320Z,96826.32
2018-05-25T02:10:23.729Z,96827.98
2018-05-25T02:13:48.678Z,96825.98
2018-05-25T02:17:12.697Z,96826.91
2018-05-25T02:20:36.329Z,96821.73
2018-05-25T02:24:01.687Z,96819.84
2018-05-25T02:27:25.091Z,96821.59
2018-05-25T02:30:48.696Z,96818.25
2018-05-25T02:34:14.103Z,96820.08
2018-05-25T02:37:37.539Z,96810.50
2018-05-25T02:41:01.012Z,96814.67
2018-05-25T02:44:24.458Z,96812.53
2018-05-25T02:47:47.799Z,96816.39
2018-05-25T02:51:11.407Z,96816.42
2018-05-25T02:54:34.726Z,96821.80
2018-05-25T02:57:58.132Z,96812.84
2018-05-25T03:01:21.652Z,96813.71
2018-05-25T03:04:45.039Z,96813.67
2018-05-25T03:08:10.574Z,96819.68
2018-05-25T03:11:34.039Z,96822.39
2018-05-25T03:14:58.905Z,96822.27
2018-05-25T03:18:23.166Z,96819.31
2018-05-25T03:21:48.657Z,96818.32
2018-05-25T03:25:11.966Z,96822.95
2018-05-25T03:28:35.349Z,96826.27
2018-05-25T03:31:58.797Z,96825.49
2018-05-25T03:35:22.285Z,96822.47
2018-05-25T03:38:45.607Z,96829.33
2018-05-25T03:42:09.161Z,96828.37
2018-05-25T03:45:34.617Z,96826.30
2018-05-25T03:48:58.067Z,96824.84
2018-05-25T03:52:23.553Z,96825.66
2018-05-25T03:55:46.985Z,96818.62
2018-05-25T03:59:30.233Z,96819.09
2018-05-25T04:02:54.923Z,96822.73
2018-05-25T04:06:19.713Z,96829.82
2018-05-25T04:09:43.777Z,96826.95
2018-05-25T04:13:07.227Z,96831.63
2018-05-25T04:16:30.648Z,96829.18
2018-05-25T04:19:54.113Z,96825.42
2018-05-25T04:23:17.538Z,96826.14
2018-05-25T04:26:43.107Z,96832.70
2018-05-25T04:30:08.837Z,96832.09
2018-05-25T04:33:32.173Z,96824.38
2018-05-25T04:36:55.488Z,96823.42
2018-05-25T04:40:19.030Z,96825.11
2018-05-25T04:43:42.391Z,96825.48
2018-05-25T04:47:05.854Z,96824.30
2018-05-25T04:50:29.238Z,96829.81
2018-05-25T04:53:52.649Z,96834.47
2018-05-25T04:57:16.274Z,96830.67
2018-05-25T05:00:41.680Z,96824.42
2018-05-25T05:04:07.275Z,96829.16
2018-05-25T05:07:32.722Z,96832.05
2018-05-25T05:10:56.088Z,96827.35
2018-05-25T05:14:19.540Z,96829.78
2018-05-25T05:17:42.922Z,96832.22
2018-05-25T05:21:06.383Z,96832.27
2018-05-25T05:24:29.985Z,96832.91
2018-05-25T05:27:53.349Z,96835.33
2018-05-25T05:31:16.822Z,96836.56
2018-05-25T05:34:42.203Z,96825.33
2018-05-25T05:38:06.616Z,96827.90
2018-05-25T05:41:30.150Z,96827.38
2018-05-25T05:44:55.695Z,96831.80
2018-05-25T05:48:19.281Z,96835.08
2018-05-25T05:51:42.815Z,96827.73
2018-05-25T05:55:06.128Z,96820.06
2018-05-25T05:58:29.484Z,96827.02
2018-05-25T06:01:52.789Z,96825.80
2018-05-25T06:05:16.062Z,96825.93
2018-05-25T06:08:39.349Z,96827.02
2018-05-25T06:12:02.653Z,96827.78
2018-05-25T06:15:25.945Z,96830.32
2018-05-25T06:18:50.065Z,96827.47
2018-05-25T06:22:13.343Z,96827.48
2018-05-25T06:25:36.613Z,96829.48
2018-05-25T06:28:59.893Z,96828.57
2018-05-25T06:32:23.638Z,96829.98
2018-05-25T06:35:46.941Z,96827.23
2018-05-25T06:39:10.997Z,96823.91
2018-05-25T06:42:34.268Z,96825.41
2018-05-25T06:45:58.306Z,96823.64
2018-05-25T06:49:21.612Z,96829.55
2018-05-25T06:52:44.909Z,96825.43
2018-05-25T06:56:08.528Z,96829.59
2018-05-25T06:59:31.955Z,96820.55
2018-05-25T07:02:55.242Z,96826.95
2018-05-25T07:06:19.411Z,96833.35
2018-05-25T07:09:42.826Z,96825.41
2018-05-25T07:13:06.106Z,96829.14
2018-05-25T07:16:29.386Z,96835.38
2018-05-25T07:19:52.681Z,96835.34
2018-05-25T07:23:16.020Z,96831.86
2018-05-25T07:26:39.297Z,96835.47
2018-05-25T07:30:02.613Z,96839.17
2018-05-25T07:33:26.134Z,96832.81
2018-05-25T07:36:49.546Z,96842.82
2018-05-25T07:40:12.868Z,96842.77
2018-05-25T07:43:36.916Z,96835.75
2018-05-25T07:47:00.214Z,96828.55
2018-05-25T07:50:23.567Z,96831.88
2018-05-25T07:53:46.836Z,96834.69
2018-05-25T07:57:10.175Z,96833.64
2018-05-25T08:00:33.560Z,96831.00
2018-05-25T08:03:56.845Z,96827.90
2018-05-25T08:07:20.134Z,96829.25
2018-05-25T08:10:43.413Z,96821.13
2018-05-25T08:14:06.736Z,96828.02
2018-05-25T08:17:30.835Z,96824.95
2018-05-25T08:20:54.889Z,96831.25
2018-05-25T08:24:18.175Z,96824.88
2018-05-25T08:27:41.541Z,96827.05
2018-05-25T08:31:05.627Z,96826.83
2018-05-25T08:34:28.916Z,96828.72
2018-05-25T08:37:52.232Z,96823.79
2018-05-25T08:41:15.510Z,96828.70
2018-05-25T08:44:38.932Z,96830.36
2018-05-25T08:48:02.241Z,96821.88
2018-05-25T08:51:25.532Z,96824.67
2018-05-25T08:54:48.824Z,96827.30
2018-05-25T08:58:12.873Z,96822.70
2018-05-25T09:01:36.152Z,96830.50
2018-05-25T09:04:59.434Z,96826.31
2018-05-25T09:08:22.917Z,96828.66
2018-05-25T09:11:47.447Z,96830.46
2018-05-25T09:15:11.671Z,96832.17
2018-05-25T09:18:35.701Z,96833.84
2018-05-25T09:21:59.285Z,96829.50
2018-05-25T09:25:22.791Z,96826.24
2018-05-25T09:28:46.083Z,96825.14
2018-05-25T09:32:09.468Z,96825.19
2018-05-25T09:35:32.773Z,96831.45
2018-05-25T09:38:56.107Z,96833.31
2018-05-25T09:42:20.272Z,96834.78
2018-05-25T09:45:44.528Z,96823.77
2018-05-25T09:49:07.839Z,96810.45
2018-05-25T09:52:31.111Z,96824.42
2018-05-25T09:55:54.408Z,96822.08
2018-05-25T09:59:17.682Z,96820.88
2018-05-25T10:02:40.978Z,96817.69
2018-05-25T10:06:04.286Z,96808.59
2018-05-25T10:09:28.759Z,96807.23
2018-05-25T10:12:52.815Z,96807.43
2018-05-25T10:16:16.076Z,96808.11
2018-05-25T10:27:38.106Z,96797.34
2018-05-25T10:31:02.205Z,96801.20
2018-05-25T10:34:25.522Z,96799.67
2018-05-25T10:37:49.712Z,96789.53
2018-05-25T10:41:13.806Z,96790.95
2018-05-25T10:44:37.118Z,96785.46
2018-05-25T10:48:00.434Z,96783.82
2018-05-25T10:51:23.719Z,96786.17
2018-05-25T10:54:47.023Z,96784.73
2018-05-25T10:58:10.328Z,96779.83
2018-05-25T11:01:33.674Z,96778.31
2018-05-25T11:04:57.005Z,96773.88
2018-05-25T11:08:20.476Z,96774.86
2018-05-25T11:11:43.792Z,96773.69
2018-05-25T11:15:07.267Z,96771.94
2018-05-25T11:18:30.544Z,96773.89
2018-05-25T11:21:53.987Z,96780.30
2018-05-25T11:25:17.319Z,96780.92
2018-05-25T11:28:40.640Z,96782.53
2018-05-25T11:32:03.943Z,96772.30
2018-05-25T11:35:27.781Z,96765.57
2018-05-25T11:38:51.063Z,96779.91
2018-05-25T11:42:14.334Z,96775.36
2018-05-25T11:45:37.612Z,96775.98
2018-05-25T11:49:01.083Z,96767.17
2018-05-25T11:52:24.378Z,96765.74
2018-05-25T11:55:48.534Z,96768.58
2018-05-25T11:59:11.829Z,96761.91
2018-05-25T12:02:35.110Z,96758.42
2018-05-25T12:05:58.614Z,96754.88
2018-05-25T12:09:22.258Z,96752.20
2018-05-25T12:12:45.537Z,96747.54
2018-05-25T12:16:09.024Z,96748.11
2018-05-25T12:19:33.076Z,96743.25
2018-05-25T12:22:56.374Z,96737.09
2018-05-25T12:26:19.641Z,96739.97
2018-05-25T12:29:42.926Z,96743.67
2018-05-25T12:33:06.270Z,96745.97
2018-05-25T12:36:29.552Z,96746.20
2018-05-25T12:39:52.901Z,96743.35
2018-05-25T12:43:16.219Z,96736.63
2018-05-25T12:46:39.558Z,96744.92
2018-05-25T12:50:03.648Z,96739.02
2018-05-25T12:53:26.946Z,96741.92
2018-05-25T12:56:50.352Z,96735.52
2018-05-25T13:00:14.102Z,96733.02
2018-05-25T13:03:37.400Z,96733.96
2018-05-25T13:07:00.703Z,96733.72
2018-05-25T13:10:24.024Z,96724.79
2018-05-25T13:13:47.309Z,96723.58
2018-05-25T13:17:10.569Z,96723.59
2018-05-25T13:20:33.927Z,96721.81
2018-05-25T13:23:57.227Z,96725.84
2018-05-25T13:27:21.335Z,96719.73
2018-05-25T13:30:44.701Z,96728.95
2018-05-25T13:34:08.059Z,96724.56
2018-05-25T13:37:31.528Z,96715.09
2018-05-25T13:40:54.834Z,96726.39
2018-05-25T13:44:18.127Z,96730.02
2018-05-25T13:47:41.619Z,96718.78
2018-05-25T13:51:04.935Z,96718.41
2018-05-25T13:54:28.301Z,96723.17
2018-05-25T13:57:51.573Z,96718.16
2018-05-25T14:01:14.849Z,96714.83
2018-05-25T14:04:38.903Z,96712.41
2018-05-25T14:08:02.198Z,96711.03
2018-05-25T14:11:25.504Z,96704.00
2018-05-25T14:14:48.798Z,96699.14
2018-05-25T14:18:12.831Z,96698.13
2018-05-25T14:21:36.113Z,96698.29
2018-05-25T14:24:59.478Z,96698.07
2018-05-25T14:28:22.760Z,96699.90
2018-05-25T14:31:46.090Z,96704.47
2018-05-25T14:35:09.379Z,96698.31
2018-05-25T14:38:33.409Z,96694.96
2018-05-25T14:41:56.698Z,96695.00
2018-05-25T14:45:20.094Z,96695.17
2018-05-25T14:48:43.533Z,96699.67
2018-05-25T14:52:07.023Z,96700.03
2018-05-25T14:55:30.440Z,96689.50
2018-05-25T14:58:53.747Z,96681.80
2018-05-25T15:02:17.077Z,96681.10
2018-05-25T15:05:40.484Z,96683.36
2018-05-25T15:09:03.752Z,96687.95
2018-05-25T15:12:27.804Z,96686.01
2018-05-25T15:15:51.122Z,96682.70
2018-05-25T15:19:14.396Z,96689.03
2018-05-25T15:22:37.679Z,96684.29
2018-05-25T15:26:01.097Z,96686.19
2018-05-25T15:29:24.466Z,96684.73
2018-05-25T15:32:48.533Z,96679.98
2018-05-25T15:36:11.801Z,96685.94
2018-05-25T15:39:35.281Z,96688.58
2018-05-25T15:42:59.088Z,96686.72
2018-05-25T15:46:22.930Z,96683.84
2018-05-25T15:49:48.682Z,96688.28
2018-05-25T15:53:12.497Z,96675.08
2018-05-25T15:56:38.074Z,96672.53
2018-05-25T16:00:01.505Z,96674.45
2018-05-25T16:03:24.922Z,96670.01
2018-05-25T16:06:48.627Z,96673.48
2018-05-25T16:10:12.005Z,96659.03
2018-05-25T16:13:35.490Z,96661.61
2018-05-25T16:16:59.072Z,96654.92
2018-05-25T16:20:22.335Z,96653.50
2018-05-25T16:23:48.056Z,96657.36
2018-05-25T16:27:13.422Z,96651.63
2018-05-25T16:30:36.864Z,96647.59
2018-05-25T16:34:00.271Z,96649.15
2018-05-25T16:37:23.703Z,96655.87
2018-05-25T16:40:47.096Z,96648.70
2018-05-25T16:44:12.757Z,96650.46
2018-05-25T16:47:38.248Z,96647.61
2018-05-25T16:51:01.581Z,96652.87
2018-05-25T16:54:25.036Z,96650.23
2018-05-25T16:57:48.483Z,96647.17
2018-05-25T17:01:11.957Z,96643.98
2018-05-25T17:04:35.361Z,96649.19
2018-05-25T17:07:58.773Z,96645.03
2018-05-25T17:11:22.159Z,96649.02
2018-05-25T17:14:47.664Z,96644.59
2018-05-25T17:18:11.191Z,96648.23
2018-05-25T17:21:35.981Z,96644.44
2018-05-25T17:25:00.099Z,96641.20
2018-05-25T17:28:23.499Z,96645.54
2018-05-25T17:31:48.443Z,96637.81
2018-05-25T17:35:12.555Z,96647.97
2018-05-25T17:38:35.875Z,96650.91
2018-05-25T17:41:59.327Z,96652.50
2018-05-25T17:45:22.915Z,96662.00
2018-05-25T17:48:46.239Z,96659.89
2018-05-25T17:52:09.586Z,96661.92
2018-05-25T17:55:35.355Z,96664.63
2018-05-25T17:58:58.632Z,96672.26
2018-05-25T18:02:23.550Z,96674.50
2018-05-25T18:05:48.153Z,96677.20
2018-05-25T18:09:13.039Z,96684.33
2018-05-25T18:12:37.975Z,96684.94
2018-05-25T18:16:01.389Z,96687.87
2018-05-25T18:19:26.231Z,96687.67
2018-05-25T18:22:49.759Z,96688.11
2018-05-25T18:26:13.329Z,96695.63
2018-05-25T18:29:37.845Z,96696.80
2018-05-25T18:33:01.255Z,96703.26
2018-05-25T18:36:24.646Z,96703.45
2018-05-25T18:39:50.326Z,96704.13
2018-05-25T18:43:13.690Z,96701.84
2018-05-25T18:46:37.052Z,96701.30
2018-05-25T18:50:00.522Z,96695.41
2018-05-25T18:53:24.096Z,96695.67
2018-05-25T18:56:47.648Z,96695.19
2018-05-25T19:00:13.042Z,96694.63
2018-05-25T19:03:38.635Z,96694.59
2018-05-25T19:07:02.615Z,96704.58
2018-05-25T19:10:26.883Z,96711.64
2018-05-25T19:18:20.668Z,96714.80
2018-05-25T19:21:44.893Z,96730.25
2018-05-25T19:25:08.839Z,96724.17
2018-05-25T19:28:34.065Z,96731.61
2018-05-25T19:31:57.924Z,96731.34
2018-05-25T19:35:23.017Z,96733.47
2018-05-25T19:38:46.622Z,96730.94
2018-05-25T19:42:09.948Z,96733.29
2018-05-25T19:45:33.369Z,96731.72
2018-05-25T19:48:58.889Z,96738.02
2018-05-25T19:52:22.348Z,96738.59
2018-05-25T19:55:45.788Z,96747.13
2018-05-25T19:59:09.210Z,96753.95
2018-05-25T20:02:32.619Z,96754.61
2018-05-25T20:05:58.163Z,96750.28
2018-05-25T20:09:21.627Z,96756.19
2018-05-25T20:12:45.017Z,96756.09
2018-05-25T20:16:08.613Z,96751.19
2018-05-25T20:19:35.458Z,96745.53
2018-05-25T20:22:59.544Z,96754.05
2018-05-25T20:26:22.865Z,96758.84
2018-05-25T20:29:46.300Z,96763.59
2018-05-25T20:33:09.774Z,96760.39
2018-05-25T20:36:35.429Z,96758.45
2018-05-25T20:39:58.810Z,96757.13
2018-05-25T20:43:24.494Z,96753.95
2018-05-25T20:46:47.820Z,96756.91
2018-05-25T20:50:11.282Z,96748.85
2018-05-25T20:53:34.886Z,96758.50
2018-05-25T20:56:59.649Z,96756.79
2018-05-25T21:00:23.841Z,96772.56
2018-05-25T21:03:49.305Z,96779.95
2018-05-25T21:07:12.684Z,96777.98
2018-05-25T21:10:36.105Z,96767.45
2018-05-25T21:13:59.588Z,96770.05
2018-05-25T21:17:22.976Z,96764.89
2018-05-25T21:20:46.534Z,96764.63
2018-05-25T21:24:09.888Z,96767.25
2018-05-25T21:27:33.394Z,96765.16
2018-05-25T21:30:56.724Z,96763.84
2018-05-25T21:34:20.156Z,96770.94
2018-05-25T21:37:43.743Z,96765.53
2018-05-25T21:41:07.029Z,96769.63
2018-05-25T21:44:32.014Z,96763.79
2018-05-25T21:47:56.072Z,96767.39
2018-05-25T21:51:19.633Z,96773.56
2018-05-25T21:54:43.023Z,96779.11
2018-05-25T21:58:06.570Z,96781.42
2018-05-25T22:01:30.067Z,96773.64
2018-05-25T22:04:53.496Z,96781.23
2018-05-25T22:08:16.948Z,96780.65
2018-05-25T22:11:40.364Z,96776.25
2018-05-25T22:15:03.800Z,96785.28
2018-05-25T22:18:27.283Z,96780.98
2018-05-25T22:21:50.680Z,96778.13
2018-05-25T22:25:14.092Z,96783.33
2018-05-25T22:28:38.956Z,96785.44
2018-05-25T22:32:03.023Z,96778.80
2018-05-25T22:35:26.440Z,96779.13
2018-05-25T22:38:51.967Z,96784.52
2018-05-25T22:42:33.110Z,96785.77
2018-05-25T22:46:15.379Z,96789.52
2018-05-25T22:49:57.667Z,96789.23
2018-05-25T22:53:27.219Z,96786.90
2018-05-25T22:56:52.116Z,96786.45
2018-05-25T23:00:15.540Z,96787.05
2018-05-25T23:03:39.241Z,96784.78
2018-05-25T23:07:02.937Z,96782.95
2018-05-25T23:10:28.216Z,96777.86
2018-05-25T23:13:51.643Z,96782.31
2018-05-25T23:17:15.123Z,96772.03
2018-05-25T23:20:38.532Z,96769.00
2018-05-25T23:24:01.964Z,96765.39
2018-05-25T23:27:25.382Z,96768.40
2018-05-25T23:30:48.818Z,96767.74
2018-05-25T23:34:14.379Z,96776.00
2018-05-25T23:37:37.762Z,96784.09
2018-05-25T23:41:01.261Z,96780.78
2018-05-25T23:44:24.634Z,96775.59
2018-05-25T23:47:50.368Z,96765.09
2018-05-25T23:51:15.729Z,96764.05
2018-05-25T23:54:39.145Z,96766.43
2018-05-25T23:58:02.541Z,96771.48
